NJT300 CYVR-KBOI
Flight info
| Callsign | NJT300 |
|---|---|
| Flight time | 1h 8m |
| Altitude | 37000 |
| Route | YVR J5 SEA J20 PDT DCT BKE DCT DEVLE KYAAN4 |
| Aircraft | A20N/M-SDE2E3FGHIRWXY/LB1 |
Departure
| Time | 2026-05-06 06:08 |
|---|---|
| Airport | Vancouver International Airport (CYVR) |
Arrival
| Time | 2026-05-06 07:17 |
|---|---|
| Airport | Boise Air Terminal/Gowen Field (KBOI) |
| Time | Latitude | Longitude | Altitude | Speed | Heading |
|---|---|---|---|---|---|
| 2026-05-06 06:03 | 49.19515 | -123.18711 | 27 ft | 0 kts | 184° |
| 2026-05-06 06:04 | 49.19502 | -123.18713 | 24 ft | 4 kts | 184° |
| 2026-05-06 06:04 | 49.19463 | -123.18723 | 27 ft | 7 kts | 191° |
| 2026-05-06 06:04 | 49.19405 | -123.18751 | 23 ft | 10 kts | 216° |
| 2026-05-06 06:04 | 49.19375 | -123.18867 | 24 ft | 14 kts | 258° |
| 2026-05-06 06:05 | 49.19363 | -123.18972 | 23 ft | 18 kts | 260° |
| 2026-05-06 06:05 | 49.19329 | -123.19256 | 22 ft | 35 kts | 259° |
| 2026-05-06 06:05 | 49.19280 | -123.19643 | 26 ft | 38 kts | 259° |
| 2026-05-06 06:05 | 49.19229 | -123.20049 | 23 ft | 39 kts | 261° |
| 2026-05-06 06:06 | 49.19186 | -123.20373 | 23 ft | 8 kts | 248° |
| 2026-05-06 06:06 | 49.19139 | -123.20431 | 24 ft | 10 kts | 193° |
| 2026-05-06 06:06 | 49.19060 | -123.20455 | 24 ft | 13 kts | 191° |
| 2026-05-06 06:06 | 49.18972 | -123.20434 | 25 ft | 14 kts | 122° |
| 2026-05-06 06:07 | 49.18960 | -123.20363 | 25 ft | 1 kts | 99° |
| 2026-05-06 06:07 | 49.18958 | -123.20340 | 25 ft | 4 kts | 99° |
| 2026-05-06 06:07 | 49.18949 | -123.20264 | 28 ft | 23 kts | 99° |
| 2026-05-06 06:07 | 49.18880 | -123.19652 | 25 ft | 91 kts | 100° |
| 2026-05-06 06:08 | 49.18734 | -123.18428 | 23 ft | 141 kts | 101° |
| 2026-05-06 06:08 | 49.18542 | -123.16912 | 459 ft | 144 kts | 102° |
| 2026-05-06 06:08 | 49.18318 | -123.15406 | 983 ft | 149 kts | 113° |
| 2026-05-06 06:08 | 49.17582 | -123.14288 | 1445 ft | 154 kts | 160° |
| 2026-05-06 06:09 | 49.16511 | -123.14164 | 1978 ft | 162 kts | 184° |
| 2026-05-06 06:09 | 49.15317 | -123.14309 | 2339 ft | 182 kts | 184° |
| 2026-05-06 06:09 | 49.13984 | -123.14446 | 2746 ft | 203 kts | 183° |
| 2026-05-06 06:09 | 49.12500 | -123.14571 | 3194 ft | 225 kts | 183° |
| 2026-05-06 06:10 | 49.10867 | -123.14693 | 3669 ft | 251 kts | 184° |
| 2026-05-06 06:10 | 49.09035 | -123.14812 | 4291 ft | 270 kts | 182° |
| 2026-05-06 06:10 | 49.07122 | -123.14518 | 5214 ft | 281 kts | 169° |
| 2026-05-06 06:10 | 49.05263 | -123.13633 | 6227 ft | 285 kts | 162° |
| 2026-05-06 06:11 | 49.03364 | -123.12601 | 7252 ft | 287 kts | 162° |
| 2026-05-06 06:11 | 49.01465 | -123.11586 | 8202 ft | 292 kts | 162° |
| 2026-05-06 06:11 | 48.99535 | -123.10565 | 9172 ft | 296 kts | 162° |
| 2026-05-06 06:11 | 48.97574 | -123.09533 | 10125 ft | 300 kts | 162° |
| 2026-05-06 06:12 | 48.95542 | -123.08466 | 10658 ft | 320 kts | 162° |
| 2026-05-06 06:12 | 48.93350 | -123.07319 | 10974 ft | 345 kts | 162° |
| 2026-05-06 06:12 | 48.91034 | -123.06107 | 11546 ft | 357 kts | 162° |
| 2026-05-06 06:12 | 48.88699 | -123.04881 | 12361 ft | 362 kts | 162° |
| 2026-05-06 06:13 | 48.86302 | -123.03623 | 13186 ft | 367 kts | 162° |
| 2026-05-06 06:13 | 48.83871 | -123.02349 | 13974 ft | 373 kts | 162° |
| 2026-05-06 06:13 | 48.81398 | -123.01055 | 14684 ft | 378 kts | 162° |
| 2026-05-06 06:13 | 48.78897 | -122.99748 | 15391 ft | 383 kts | 162° |
| 2026-05-06 06:14 | 48.76361 | -122.98423 | 16129 ft | 387 kts | 162° |
| 2026-05-06 06:14 | 48.73804 | -122.97087 | 16840 ft | 391 kts | 163° |
| 2026-05-06 06:14 | 48.71212 | -122.95734 | 17541 ft | 396 kts | 163° |
| 2026-05-06 06:14 | 48.68587 | -122.94366 | 18246 ft | 400 kts | 163° |
| 2026-05-06 06:15 | 48.65941 | -122.92990 | 18872 ft | 404 kts | 163° |
| 2026-05-06 06:15 | 48.63266 | -122.91600 | 19498 ft | 408 kts | 163° |
| 2026-05-06 06:15 | 48.60565 | -122.90200 | 20126 ft | 412 kts | 163° |
| 2026-05-06 06:15 | 48.57837 | -122.88785 | 20756 ft | 416 kts | 163° |
| 2026-05-06 06:16 | 48.55083 | -122.87360 | 21359 ft | 420 kts | 163° |
| 2026-05-06 06:16 | 48.52302 | -122.85922 | 21963 ft | 424 kts | 163° |
| 2026-05-06 06:16 | 48.49501 | -122.84475 | 22556 ft | 427 kts | 163° |
| 2026-05-06 06:16 | 48.46679 | -122.83021 | 23155 ft | 430 kts | 163° |
| 2026-05-06 06:17 | 48.43845 | -122.81561 | 23780 ft | 432 kts | 163° |
| 2026-05-06 06:17 | 48.40987 | -122.80088 | 24293 ft | 436 kts | 163° |
| 2026-05-06 06:17 | 48.38106 | -122.78607 | 24765 ft | 439 kts | 162° |
| 2026-05-06 06:17 | 48.35197 | -122.77116 | 25186 ft | 444 kts | 162° |
| 2026-05-06 06:18 | 48.32263 | -122.75612 | 25674 ft | 446 kts | 162° |
| 2026-05-06 06:18 | 48.29352 | -122.74121 | 26138 ft | 449 kts | 162° |
| 2026-05-06 06:18 | 48.26383 | -122.72603 | 26584 ft | 453 kts | 162° |
| 2026-05-06 06:18 | 48.23385 | -122.71072 | 27021 ft | 456 kts | 162° |
| 2026-05-06 06:19 | 48.20372 | -122.69535 | 27449 ft | 459 kts | 162° |
| 2026-05-06 06:19 | 48.17343 | -122.67992 | 27869 ft | 461 kts | 162° |
| 2026-05-06 06:19 | 48.14283 | -122.66437 | 28205 ft | 466 kts | 162° |
| 2026-05-06 06:19 | 48.11204 | -122.64873 | 28616 ft | 468 kts | 162° |
| 2026-05-06 06:20 | 48.08103 | -122.63298 | 28995 ft | 471 kts | 162° |
| 2026-05-06 06:20 | 48.04991 | -122.61720 | 29344 ft | 474 kts | 162° |
| 2026-05-06 06:20 | 48.01861 | -122.60135 | 29698 ft | 476 kts | 162° |
| 2026-05-06 06:20 | 47.98708 | -122.58540 | 30045 ft | 479 kts | 162° |
| 2026-05-06 06:21 | 47.95536 | -122.56938 | 30359 ft | 482 kts | 162° |
| 2026-05-06 06:21 | 47.92343 | -122.55328 | 30612 ft | 486 kts | 162° |
| 2026-05-06 06:21 | 47.89123 | -122.53706 | 30946 ft | 488 kts | 162° |
| 2026-05-06 06:21 | 47.85943 | -122.52105 | 31295 ft | 490 kts | 162° |
| 2026-05-06 06:22 | 47.82714 | -122.50483 | 31688 ft | 489 kts | 162° |
| 2026-05-06 06:22 | 47.79504 | -122.48871 | 32172 ft | 486 kts | 162° |
| 2026-05-06 06:22 | 47.76294 | -122.47262 | 32596 ft | 486 kts | 162° |
| 2026-05-06 06:22 | 47.73087 | -122.45657 | 32974 ft | 486 kts | 162° |
| 2026-05-06 06:23 | 47.69869 | -122.44049 | 33298 ft | 487 kts | 162° |
| 2026-05-06 06:23 | 47.66649 | -122.42442 | 33692 ft | 486 kts | 162° |
| 2026-05-06 06:23 | 47.63484 | -122.40864 | 34070 ft | 485 kts | 162° |
| 2026-05-06 06:23 | 47.60285 | -122.39271 | 34391 ft | 485 kts | 162° |
| 2026-05-06 06:24 | 47.57090 | -122.37682 | 34712 ft | 484 kts | 163° |
| 2026-05-06 06:24 | 47.53894 | -122.36094 | 35010 ft | 483 kts | 163° |
| 2026-05-06 06:24 | 47.50701 | -122.34512 | 35289 ft | 484 kts | 162° |
| 2026-05-06 06:24 | 47.47516 | -122.32864 | 35567 ft | 484 kts | 158° |
| 2026-05-06 06:25 | 47.44545 | -122.30499 | 35830 ft | 484 kts | 145° |
| 2026-05-06 06:25 | 47.41955 | -122.27315 | 36077 ft | 483 kts | 133° |
| 2026-05-06 06:25 | 47.38044 | -122.19374 | 36552 ft | 481 kts | 120° |
| 2026-05-06 06:26 | 47.36273 | -122.15181 | 36792 ft | 481 kts | 120° |
| 2026-05-06 06:26 | 47.34485 | -122.11014 | 37027 ft | 481 kts | 121° |
| 2026-05-06 06:26 | 47.32665 | -122.06875 | 37075 ft | 480 kts | 121° |
| 2026-05-06 06:27 | 47.28971 | -121.98655 | 37081 ft | 484 kts | 122° |
| 2026-05-06 06:27 | 47.25212 | -121.90382 | 37082 ft | 491 kts | 122° |
| 2026-05-06 06:28 | 47.21402 | -121.82029 | 37083 ft | 490 kts | 122° |
| 2026-05-06 06:28 | 47.17593 | -121.73701 | 37078 ft | 491 kts | 122° |
| 2026-05-06 06:29 | 47.13775 | -121.65370 | 37073 ft | 491 kts | 122° |
| 2026-05-06 06:29 | 47.09949 | -121.57049 | 37064 ft | 491 kts | 122° |
| 2026-05-06 06:30 | 47.06140 | -121.48792 | 37064 ft | 492 kts | 121° |
| 2026-05-06 06:30 | 47.02266 | -121.40424 | 37057 ft | 498 kts | 121° |
| 2026-05-06 06:31 | 46.98376 | -121.32042 | 37038 ft | 497 kts | 121° |
| 2026-05-06 06:31 | 46.94472 | -121.23664 | 37022 ft | 497 kts | 122° |
| 2026-05-06 06:32 | 46.90576 | -121.15315 | 37006 ft | 496 kts | 121° |
| 2026-05-06 06:32 | 46.86673 | -121.06981 | 37006 ft | 497 kts | 121° |
| 2026-05-06 06:33 | 46.82786 | -120.98707 | 37005 ft | 497 kts | 121° |
| 2026-05-06 06:33 | 46.78868 | -120.90390 | 36961 ft | 496 kts | 121° |
| 2026-05-06 06:34 | 46.74939 | -120.82077 | 36954 ft | 497 kts | 122° |
| 2026-05-06 06:34 | 46.71009 | -120.73788 | 36944 ft | 496 kts | 122° |
| 2026-05-06 06:35 | 46.67073 | -120.65504 | 36942 ft | 497 kts | 122° |
| 2026-05-06 06:35 | 46.63148 | -120.57272 | 36943 ft | 497 kts | 122° |
| 2026-05-06 06:36 | 46.59192 | -120.48999 | 36963 ft | 498 kts | 121° |
| 2026-05-06 06:36 | 46.55022 | -120.40913 | 36936 ft | 502 kts | 126° |
| 2026-05-06 06:37 | 46.50589 | -120.33086 | 36930 ft | 502 kts | 126° |
| 2026-05-06 06:37 | 46.46151 | -120.25246 | 36917 ft | 503 kts | 126° |
| 2026-05-06 06:38 | 46.41696 | -120.17402 | 36908 ft | 503 kts | 126° |
| 2026-05-06 06:38 | 46.37269 | -120.09630 | 36893 ft | 503 kts | 126° |
| 2026-05-06 06:39 | 46.32805 | -120.01815 | 36898 ft | 503 kts | 126° |
| 2026-05-06 06:39 | 46.28335 | -119.94014 | 36890 ft | 503 kts | 126° |
| 2026-05-06 06:40 | 46.23859 | -119.86222 | 36891 ft | 503 kts | 126° |
| 2026-05-06 06:40 | 46.19407 | -119.78493 | 36891 ft | 503 kts | 126° |
| 2026-05-06 06:41 | 46.14926 | -119.70739 | 36892 ft | 502 kts | 126° |
| 2026-05-06 06:41 | 46.10444 | -119.63004 | 36896 ft | 503 kts | 126° |
| 2026-05-06 06:42 | 46.05944 | -119.55257 | 36898 ft | 502 kts | 126° |
| 2026-05-06 06:42 | 46.01476 | -119.47588 | 36920 ft | 503 kts | 126° |
| 2026-05-06 06:43 | 45.96982 | -119.39896 | 36917 ft | 502 kts | 126° |
| 2026-05-06 06:43 | 45.92469 | -119.32192 | 36926 ft | 502 kts | 126° |
| 2026-05-06 06:44 | 45.87961 | -119.24518 | 36926 ft | 502 kts | 126° |
| 2026-05-06 06:44 | 45.83448 | -119.16860 | 36924 ft | 502 kts | 126° |
| 2026-05-06 06:45 | 45.78926 | -119.09204 | 36927 ft | 503 kts | 125° |
| 2026-05-06 06:45 | 45.74396 | -119.01555 | 36935 ft | 503 kts | 125° |
| 2026-05-06 06:46 | 45.69857 | -118.94014 | 36954 ft | 504 kts | 128° |
| 2026-05-06 06:46 | 45.64765 | -118.87052 | 36956 ft | 507 kts | 132° |
| 2026-05-06 06:47 | 45.59612 | -118.80145 | 36962 ft | 507 kts | 132° |
| 2026-05-06 06:47 | 45.55333 | -118.74415 | 36969 ft | 507 kts | 132° |
| 2026-05-06 06:48 | 45.50189 | -118.67546 | 36988 ft | 506 kts | 132° |
| 2026-05-06 06:48 | 45.45045 | -118.60692 | 37015 ft | 506 kts | 132° |
| 2026-05-06 06:49 | 45.39888 | -118.53841 | 37025 ft | 507 kts | 132° |
| 2026-05-06 06:49 | 45.34730 | -118.47008 | 37037 ft | 506 kts | 132° |
| 2026-05-06 06:50 | 45.29603 | -118.40233 | 37037 ft | 506 kts | 132° |
| 2026-05-06 06:50 | 45.24432 | -118.33416 | 37038 ft | 506 kts | 132° |
| 2026-05-06 06:51 | 45.19269 | -118.26628 | 37035 ft | 506 kts | 132° |
| 2026-05-06 06:51 | 45.14097 | -118.19849 | 37035 ft | 506 kts | 132° |
| 2026-05-06 06:52 | 45.08920 | -118.13076 | 37031 ft | 506 kts | 132° |
| 2026-05-06 06:52 | 45.03745 | -118.06325 | 37020 ft | 506 kts | 132° |
| 2026-05-06 06:53 | 44.98592 | -117.99619 | 37029 ft | 506 kts | 132° |
| 2026-05-06 06:53 | 44.93403 | -117.92885 | 37034 ft | 506 kts | 132° |
| 2026-05-06 06:54 | 44.88202 | -117.86152 | 37038 ft | 506 kts | 132° |
| 2026-05-06 06:54 | 44.82820 | -117.79715 | 37039 ft | 512 kts | 140° |
| 2026-05-06 06:55 | 44.76816 | -117.74271 | 36888 ft | 512 kts | 143° |
| 2026-05-06 06:55 | 44.73807 | -117.71582 | 36394 ft | 511 kts | 143° |
| 2026-05-06 06:55 | 44.70808 | -117.68899 | 35686 ft | 510 kts | 143° |
| 2026-05-06 06:55 | 44.67807 | -117.66212 | 34901 ft | 511 kts | 143° |
| 2026-05-06 06:56 | 44.64812 | -117.63533 | 34108 ft | 511 kts | 143° |
| 2026-05-06 06:56 | 44.61800 | -117.60841 | 33165 ft | 513 kts | 143° |
| 2026-05-06 06:56 | 44.58822 | -117.58183 | 32194 ft | 515 kts | 143° |
| 2026-05-06 06:56 | 44.55794 | -117.55485 | 31209 ft | 516 kts | 143° |
| 2026-05-06 06:57 | 44.52743 | -117.52768 | 30187 ft | 520 kts | 143° |
| 2026-05-06 06:57 | 44.49668 | -117.50035 | 29094 ft | 522 kts | 143° |
| 2026-05-06 06:57 | 44.46611 | -117.47323 | 28347 ft | 516 kts | 144° |
| 2026-05-06 06:57 | 44.43599 | -117.44658 | 27633 ft | 510 kts | 144° |
| 2026-05-06 06:58 | 44.40607 | -117.42011 | 26936 ft | 505 kts | 144° |
| 2026-05-06 06:58 | 44.37657 | -117.39404 | 26372 ft | 498 kts | 144° |
| 2026-05-06 06:58 | 44.34768 | -117.36855 | 26060 ft | 485 kts | 143° |
| 2026-05-06 06:58 | 44.31954 | -117.34376 | 25801 ft | 471 kts | 143° |
| 2026-05-06 06:59 | 44.29207 | -117.31957 | 25574 ft | 464 kts | 143° |
| 2026-05-06 06:59 | 44.26477 | -117.29548 | 25333 ft | 466 kts | 143° |
| 2026-05-06 06:59 | 44.23730 | -117.27122 | 25079 ft | 466 kts | 142° |
| 2026-05-06 06:59 | 44.21193 | -117.24461 | 24859 ft | 459 kts | 134° |
| 2026-05-06 07:00 | 44.18947 | -117.21368 | 24619 ft | 451 kts | 126° |
| 2026-05-06 07:00 | 44.16895 | -117.18073 | 24409 ft | 449 kts | 125° |
| 2026-05-06 07:00 | 44.14848 | -117.14789 | 23951 ft | 449 kts | 125° |
| 2026-05-06 07:00 | 44.12788 | -117.11497 | 23141 ft | 453 kts | 126° |
| 2026-05-06 07:01 | 44.10700 | -117.08169 | 22205 ft | 457 kts | 126° |
| 2026-05-06 07:01 | 44.08614 | -117.04858 | 21504 ft | 453 kts | 127° |
| 2026-05-06 07:01 | 44.06546 | -117.01585 | 20884 ft | 448 kts | 127° |
| 2026-05-06 07:01 | 44.04501 | -116.98350 | 20255 ft | 443 kts | 127° |
| 2026-05-06 07:02 | 44.02480 | -116.95155 | 19631 ft | 438 kts | 127° |
| 2026-05-06 07:02 | 44.00478 | -116.91993 | 19016 ft | 434 kts | 127° |
| 2026-05-06 07:02 | 43.98486 | -116.88849 | 18428 ft | 429 kts | 127° |
| 2026-05-06 07:02 | 43.96525 | -116.85757 | 17750 ft | 425 kts | 128° |
| 2026-05-06 07:03 | 43.94584 | -116.82701 | 17092 ft | 420 kts | 128° |
| 2026-05-06 07:03 | 43.92660 | -116.79675 | 16447 ft | 415 kts | 128° |
| 2026-05-06 07:03 | 43.90782 | -116.76726 | 15915 ft | 409 kts | 128° |
| 2026-05-06 07:03 | 43.88927 | -116.73819 | 15623 ft | 396 kts | 128° |
| 2026-05-06 07:04 | 43.87128 | -116.71004 | 15372 ft | 383 kts | 128° |
| 2026-05-06 07:04 | 43.85371 | -116.68252 | 15086 ft | 381 kts | 128° |
| 2026-05-06 07:04 | 43.83601 | -116.65476 | 14539 ft | 385 kts | 127° |
| 2026-05-06 07:04 | 43.81993 | -116.62544 | 13945 ft | 382 kts | 121° |
| 2026-05-06 07:05 | 43.80503 | -116.59513 | 13334 ft | 379 kts | 121° |
| 2026-05-06 07:05 | 43.79025 | -116.56521 | 12848 ft | 374 kts | 121° |
| 2026-05-06 07:05 | 43.77566 | -116.53582 | 12433 ft | 366 kts | 120° |
| 2026-05-06 07:05 | 43.76134 | -116.50702 | 11971 ft | 361 kts | 120° |
| 2026-05-06 07:06 | 43.74735 | -116.47890 | 11485 ft | 357 kts | 120° |
| 2026-05-06 07:06 | 43.73330 | -116.45069 | 10989 ft | 353 kts | 120° |
| 2026-05-06 07:06 | 43.71943 | -116.42286 | 10491 ft | 350 kts | 120° |
| 2026-05-06 07:06 | 43.70575 | -116.39549 | 10241 ft | 339 kts | 120° |
| 2026-05-06 07:07 | 43.69261 | -116.36929 | 10107 ft | 325 kts | 119° |
| 2026-05-06 07:07 | 43.67899 | -116.34497 | 9979 ft | 315 kts | 128° |
| 2026-05-06 07:07 | 43.66302 | -116.32430 | 9656 ft | 313 kts | 134° |
| 2026-05-06 07:07 | 43.64671 | -116.30487 | 9360 ft | 306 kts | 134° |
| 2026-05-06 07:08 | 43.63069 | -116.28568 | 8924 ft | 304 kts | 134° |
| 2026-05-06 07:08 | 43.61471 | -116.26643 | 8479 ft | 303 kts | 135° |
| 2026-05-06 07:08 | 43.59893 | -116.24740 | 8092 ft | 300 kts | 135° |
| 2026-05-06 07:08 | 43.58337 | -116.22841 | 7777 ft | 297 kts | 135° |
| 2026-05-06 07:09 | 43.56806 | -116.20954 | 7414 ft | 294 kts | 135° |
| 2026-05-06 07:09 | 43.55296 | -116.19077 | 7052 ft | 291 kts | 135° |
| 2026-05-06 07:09 | 43.53807 | -116.17208 | 6694 ft | 289 kts | 135° |
| 2026-05-06 07:09 | 43.52332 | -116.15341 | 6332 ft | 286 kts | 135° |
| 2026-05-06 07:10 | 43.50879 | -116.13502 | 6074 ft | 279 kts | 135° |
| 2026-05-06 07:10 | 43.49472 | -116.11710 | 6019 ft | 283 kts | 135° |
| 2026-05-06 07:10 | 43.48024 | -116.09866 | 6008 ft | 280 kts | 135° |
| 2026-05-06 07:10 | 43.46599 | -116.08023 | 6003 ft | 281 kts | 135° |
| 2026-05-06 07:11 | 43.45176 | -116.06184 | 5997 ft | 276 kts | 135° |
| 2026-05-06 07:11 | 43.43819 | -116.04421 | 5989 ft | 259 kts | 131° |
| 2026-05-06 07:11 | 43.42952 | -116.02404 | 5993 ft | 235 kts | 104° |
| 2026-05-06 07:11 | 43.42669 | -116.00295 | 5981 ft | 213 kts | 81° |
| 2026-05-06 07:12 | 43.43204 | -115.98407 | 5987 ft | 216 kts | 48° |
| 2026-05-06 07:12 | 43.44408 | -115.97287 | 5987 ft | 211 kts | 14° |
| 2026-05-06 07:12 | 43.45869 | -115.97280 | 5985 ft | 213 kts | 347° |
| 2026-05-06 07:12 | 43.47287 | -115.97912 | 5981 ft | 214 kts | 337° |
| 2026-05-06 07:13 | 43.48470 | -115.99111 | 5991 ft | 218 kts | 312° |
| 2026-05-06 07:13 | 43.49302 | -116.00875 | 5934 ft | 222 kts | 299° |
| 2026-05-06 07:13 | 43.49943 | -116.02807 | 5640 ft | 220 kts | 295° |
| 2026-05-06 07:13 | 43.50565 | -116.04686 | 5336 ft | 216 kts | 297° |
| 2026-05-06 07:14 | 43.51206 | -116.06577 | 5059 ft | 215 kts | 297° |
| 2026-05-06 07:14 | 43.51836 | -116.08433 | 4798 ft | 214 kts | 296° |
| 2026-05-06 07:14 | 43.52454 | -116.10255 | 4523 ft | 203 kts | 296° |
| 2026-05-06 07:14 | 43.53026 | -116.11946 | 4293 ft | 186 kts | 296° |
| 2026-05-06 07:15 | 43.53549 | -116.13484 | 4020 ft | 170 kts | 296° |
| 2026-05-06 07:15 | 43.54028 | -116.14898 | 3790 ft | 156 kts | 296° |
| 2026-05-06 07:15 | 43.54468 | -116.16194 | 3567 ft | 148 kts | 297° |
| 2026-05-06 07:15 | 43.54909 | -116.17488 | 3366 ft | 147 kts | 296° |
| 2026-05-06 07:16 | 43.55324 | -116.18710 | 3166 ft | 134 kts | 297° |
| 2026-05-06 07:16 | 43.55726 | -116.19890 | 2992 ft | 141 kts | 298° |
| 2026-05-06 07:16 | 43.56127 | -116.21072 | 2882 ft | 122 kts | 297° |
| 2026-05-06 07:16 | 43.56410 | -116.21899 | 2879 ft | 78 kts | 297° |
| 2026-05-06 07:17 | 43.56611 | -116.22426 | 2881 ft | 27 kts | 327° |
| 2026-05-06 07:17 | 43.56640 | -116.22427 | 2881 ft | 6 kts | 21° |
| 2026-05-06 07:17 | 43.56677 | -116.22368 | 2881 ft | 10 kts | 73° |
| 2026-05-06 07:17 | 43.56654 | -116.22261 | 2881 ft | 13 kts | 114° |
| 2026-05-06 07:18 | 43.56658 | -116.22145 | 2881 ft | 13 kts | 33° |
| 2026-05-06 07:18 | 43.56731 | -116.22126 | 2881 ft | 10 kts | 24° |
| 2026-05-06 07:18 | 43.56741 | -116.22120 | 2881 ft | 0 kts | 24° |